sensor_id;sensor_type;location;lat;lon;timestamp;P1;durP1;ratioP1;P2;durP2;ratioP2
71360;SDS011;59166;48.908;1.870;2022-10-16T00:04:44;5.57;;;1.50;;
71360;SDS011;59166;48.908;1.870;2022-10-16T00:09:47;4.20;;;1.60;;
71360;SDS011;59166;48.908;1.870;2022-10-16T00:14:48;5.18;;;1.58;;
71360;SDS011;59166;48.908;1.870;2022-10-16T00:19:48;6.13;;;1.60;;
71360;SDS011;59166;48.908;1.870;2022-10-16T00:24:51;8.00;;;1.83;;
71360;SDS011;59166;48.908;1.870;2022-10-16T00:29:52;5.53;;;1.73;;
71360;SDS011;59166;48.908;1.870;2022-10-16T00:34:53;4.50;;;1.40;;
71360;SDS011;59166;48.908;1.870;2022-10-16T00:39:55;5.65;;;1.40;;
71360;SDS011;59166;48.908;1.870;2022-10-16T00:44:56;5.27;;;1.40;;
71360;SDS011;59166;48.908;1.870;2022-10-16T00:49:59;6.57;;;1.43;;
71360;SDS011;59166;48.908;1.870;2022-10-16T00:55:06;6.03;;;1.60;;
71360;SDS011;59166;48.908;1.870;2022-10-16T01:00:10;4.15;;;1.50;;
71360;SDS011;59166;48.908;1.870;2022-10-16T01:05:13;5.30;;;1.33;;
71360;SDS011;59166;48.908;1.870;2022-10-16T01:10:17;5.40;;;1.40;;
71360;SDS011;59166;48.908;1.870;2022-10-16T01:15:27;4.90;;;1.40;;
71360;SDS011;59166;48.908;1.870;2022-10-16T01:20:31;5.83;;;1.60;;
71360;SDS011;59166;48.908;1.870;2022-10-16T01:25:39;3.75;;;1.40;;
71360;SDS011;59166;48.908;1.870;2022-10-16T01:30:57;4.70;;;1.50;;
71360;SDS011;59166;48.908;1.870;2022-10-16T01:36:01;6.07;;;1.50;;
71360;SDS011;59166;48.908;1.870;2022-10-16T01:41:07;6.65;;;1.52;;
71360;SDS011;59166;48.908;1.870;2022-10-16T01:46:11;3.50;;;1.30;;
71360;SDS011;59166;48.908;1.870;2022-10-16T01:51:16;3.97;;;1.20;;
71360;SDS011;59166;48.908;1.870;2022-10-16T01:56:19;3.50;;;1.30;;
71360;SDS011;59166;48.908;1.870;2022-10-16T02:01:24;5.03;;;1.40;;
71360;SDS011;59166;48.908;1.870;2022-10-16T02:06:28;4.83;;;1.20;;
71360;SDS011;59166;48.908;1.870;2022-10-16T02:11:29;5.17;;;1.10;;
71360;SDS011;59166;48.908;1.870;2022-10-16T02:16:35;3.75;;;1.25;;
71360;SDS011;59166;48.908;1.870;2022-10-16T02:21:39;5.37;;;1.50;;
71360;SDS011;59166;48.908;1.870;2022-10-16T02:26:44;4.70;;;1.20;;
71360;SDS011;59166;48.908;1.870;2022-10-16T02:31:54;3.95;;;1.10;;
71360;SDS011;59166;48.908;1.870;2022-10-16T02:36:59;3.23;;;1.10;;
71360;SDS011;59166;48.908;1.870;2022-10-16T02:42:02;3.53;;;1.00;;
71360;SDS011;59166;48.908;1.870;2022-10-16T02:47:04;4.65;;;1.20;;
71360;SDS011;59166;48.908;1.870;2022-10-16T02:52:05;3.95;;;1.20;;
71360;SDS011;59166;48.908;1.870;2022-10-16T02:57:06;3.57;;;1.10;;
71360;SDS011;59166;48.908;1.870;2022-10-16T03:02:08;4.90;;;1.20;;
71360;SDS011;59166;48.908;1.870;2022-10-16T03:07:10;4.13;;;1.00;;
71360;SDS011;59166;48.908;1.870;2022-10-16T03:12:11;3.80;;;1.27;;
71360;SDS011;59166;48.908;1.870;2022-10-16T03:17:13;4.22;;;1.10;;
71360;SDS011;59166;48.908;1.870;2022-10-16T03:22:14;4.53;;;1.17;;
71360;SDS011;59166;48.908;1.870;2022-10-16T03:27:15;6.70;;;1.20;;
71360;SDS011;59166;48.908;1.870;2022-10-16T03:32:17;4.20;;;1.10;;
71360;SDS011;59166;48.908;1.870;2022-10-16T03:37:18;4.87;;;1.13;;
71360;SDS011;59166;48.908;1.870;2022-10-16T03:42:19;4.13;;;1.20;;
71360;SDS011;59166;48.908;1.870;2022-10-16T03:47:21;3.17;;;1.10;;
71360;SDS011;59166;48.908;1.870;2022-10-16T03:52:22;2.87;;;1.00;;
71360;SDS011;59166;48.908;1.870;2022-10-16T03:57:23;4.32;;;1.10;;
71360;SDS011;59166;48.908;1.870;2022-10-16T04:02:26;3.40;;;1.10;;
71360;SDS011;59166;48.908;1.870;2022-10-16T04:07:26;4.05;;;1.20;;
71360;SDS011;59166;48.908;1.870;2022-10-16T04:12:27;5.22;;;1.10;;
71360;SDS011;59166;48.908;1.870;2022-10-16T04:17:30;4.70;;;1.00;;
71360;SDS011;59166;48.908;1.870;2022-10-16T04:22:31;3.97;;;1.05;;
71360;SDS011;59166;48.908;1.870;2022-10-16T04:27:31;4.82;;;1.15;;
71360;SDS011;59166;48.908;1.870;2022-10-16T04:32:34;2.57;;;0.97;;
71360;SDS011;59166;48.908;1.870;2022-10-16T04:37:35;3.08;;;1.00;;
71360;SDS011;59166;48.908;1.870;2022-10-16T04:42:36;3.43;;;1.03;;
71360;SDS011;59166;48.908;1.870;2022-10-16T04:47:39;4.10;;;0.93;;
71360;SDS011;59166;48.908;1.870;2022-10-16T04:52:40;3.65;;;1.10;;
71360;SDS011;59166;48.908;1.870;2022-10-16T04:57:41;2.43;;;1.03;;
71360;SDS011;59166;48.908;1.870;2022-10-16T05:02:43;4.00;;;1.20;;
71360;SDS011;59166;48.908;1.870;2022-10-16T05:07:44;3.47;;;1.17;;
71360;SDS011;59166;48.908;1.870;2022-10-16T05:12:45;3.60;;;0.90;;
71360;SDS011;59166;48.908;1.870;2022-10-16T05:17:51;2.63;;;1.00;;
71360;SDS011;59166;48.908;1.870;2022-10-16T05:22:52;3.60;;;1.20;;
71360;SDS011;59166;48.908;1.870;2022-10-16T05:27:53;4.63;;;1.20;;
71360;SDS011;59166;48.908;1.870;2022-10-16T05:32:56;4.80;;;1.17;;
71360;SDS011;59166;48.908;1.870;2022-10-16T05:37:56;4.17;;;1.30;;
71360;SDS011;59166;48.908;1.870;2022-10-16T05:42:57;7.25;;;1.67;;
71360;SDS011;59166;48.908;1.870;2022-10-16T05:48:00;4.93;;;1.23;;
71360;SDS011;59166;48.908;1.870;2022-10-16T05:53:01;4.00;;;1.40;;
71360;SDS011;59166;48.908;1.870;2022-10-16T05:58:02;4.93;;;1.30;;
71360;SDS011;59166;48.908;1.870;2022-10-16T06:03:04;5.03;;;1.38;;
71360;SDS011;59166;48.908;1.870;2022-10-16T06:08:05;5.40;;;1.50;;
71360;SDS011;59166;48.908;1.870;2022-10-16T06:13:05;6.53;;;1.70;;
71360;SDS011;59166;48.908;1.870;2022-10-16T06:18:08;7.30;;;1.50;;
71360;SDS011;59166;48.908;1.870;2022-10-16T06:23:09;7.30;;;1.77;;
71360;SDS011;59166;48.908;1.870;2022-10-16T06:28:10;4.63;;;1.30;;
71360;SDS011;59166;48.908;1.870;2022-10-16T06:33:12;5.93;;;1.50;;
71360;SDS011;59166;48.908;1.870;2022-10-16T06:38:13;3.70;;;1.20;;
71360;SDS011;59166;48.908;1.870;2022-10-16T06:43:14;3.23;;;1.10;;
71360;SDS011;59166;48.908;1.870;2022-10-16T06:48:16;4.78;;;1.27;;
71360;SDS011;59166;48.908;1.870;2022-10-16T06:53:17;6.00;;;1.23;;
71360;SDS011;59166;48.908;1.870;2022-10-16T06:58:18;5.90;;;1.40;;
71360;SDS011;59166;48.908;1.870;2022-10-16T07:03:20;4.20;;;1.30;;
71360;SDS011;59166;48.908;1.870;2022-10-16T07:08:21;6.03;;;1.40;;
71360;SDS011;59166;48.908;1.870;2022-10-16T07:13:22;6.22;;;1.70;;
71360;SDS011;59166;48.908;1.870;2022-10-16T07:18:24;8.23;;;1.67;;
71360;SDS011;59166;48.908;1.870;2022-10-16T07:23:25;3.95;;;1.20;;
71360;SDS011;59166;48.908;1.870;2022-10-16T07:28:26;5.63;;;1.38;;
71360;SDS011;59166;48.908;1.870;2022-10-16T07:33:28;4.97;;;1.40;;
71360;SDS011;59166;48.908;1.870;2022-10-16T07:38:29;6.18;;;1.20;;
71360;SDS011;59166;48.908;1.870;2022-10-16T07:43:34;3.20;;;0.90;;
71360;SDS011;59166;48.908;1.870;2022-10-16T07:48:37;4.93;;;1.20;;
71360;SDS011;59166;48.908;1.870;2022-10-16T07:53:37;5.88;;;1.30;;
71360;SDS011;59166;48.908;1.870;2022-10-16T07:58:38;4.15;;;1.20;;
71360;SDS011;59166;48.908;1.870;2022-10-16T08:08:56;4.57;;;1.20;;
71360;SDS011;59166;48.908;1.870;2022-10-16T08:14:00;4.57;;;1.40;;
71360;SDS011;59166;48.908;1.870;2022-10-16T08:19:04;6.10;;;1.70;;
71360;SDS011;59166;48.908;1.870;2022-10-16T08:24:05;5.18;;;1.35;;
71360;SDS011;59166;48.908;1.870;2022-10-16T08:29:06;4.03;;;0.97;;
71360;SDS011;59166;48.908;1.870;2022-10-16T08:34:09;3.10;;;1.10;;
71360;SDS011;59166;48.908;1.870;2022-10-16T08:39:09;4.80;;;1.30;;
71360;SDS011;59166;48.908;1.870;2022-10-16T08:44:21;4.23;;;1.17;;
71360;SDS011;59166;48.908;1.870;2022-10-16T08:49:32;4.63;;;1.30;;
71360;SDS011;59166;48.908;1.870;2022-10-16T08:54:34;4.23;;;1.20;;
71360;SDS011;59166;48.908;1.870;2022-10-16T08:59:37;4.37;;;1.20;;
71360;SDS011;59166;48.908;1.870;2022-10-16T09:04:44;3.97;;;1.17;;
71360;SDS011;59166;48.908;1.870;2022-10-16T09:10:06;3.13;;;1.27;;
71360;SDS011;59166;48.908;1.870;2022-10-16T09:15:18;4.30;;;1.23;;
71360;SDS011;59166;48.908;1.870;2022-10-16T09:20:37;4.60;;;1.38;;
71360;SDS011;59166;48.908;1.870;2022-10-16T09:25:46;3.90;;;1.40;;
71360;SDS011;59166;48.908;1.870;2022-10-16T09:30:48;3.33;;;1.10;;
71360;SDS011;59166;48.908;1.870;2022-10-16T09:35:51;3.60;;;1.00;;
71360;SDS011;59166;48.908;1.870;2022-10-16T09:40:54;3.88;;;1.20;;
71360;SDS011;59166;48.908;1.870;2022-10-16T09:45:57;7.17;;;1.30;;
71360;SDS011;59166;48.908;1.870;2022-10-16T09:51:01;3.22;;;1.15;;
71360;SDS011;59166;48.908;1.870;2022-10-16T09:56:04;4.45;;;1.20;;
71360;SDS011;59166;48.908;1.870;2022-10-16T10:01:05;6.43;;;1.20;;
71360;SDS011;59166;48.908;1.870;2022-10-16T10:06:14;5.07;;;1.10;;
71360;SDS011;59166;48.908;1.870;2022-10-16T10:11:18;6.78;;;1.35;;
71360;SDS011;59166;48.908;1.870;2022-10-16T10:16:36;4.30;;;1.00;;
71360;SDS011;59166;48.908;1.870;2022-10-16T10:21:38;4.93;;;1.00;;
71360;SDS011;59166;48.908;1.870;2022-10-16T10:26:42;4.57;;;1.10;;
71360;SDS011;59166;48.908;1.870;2022-10-16T10:31:51;5.03;;;1.00;;
71360;SDS011;59166;48.908;1.870;2022-10-16T10:37:23;4.35;;;1.00;;
71360;SDS011;59166;48.908;1.870;2022-10-16T10:42:44;6.82;;;1.30;;
71360;SDS011;59166;48.908;1.870;2022-10-16T10:47:59;4.27;;;1.00;;
71360;SDS011;59166;48.908;1.870;2022-10-16T10:53:21;4.20;;;1.00;;
71360;SDS011;59166;48.908;1.870;2022-10-16T10:59:00;7.40;;;1.30;;
71360;SDS011;59166;48.908;1.870;2022-10-16T11:04:33;3.85;;;1.25;;
71360;SDS011;59166;48.908;1.870;2022-10-16T11:09:51;5.03;;;1.13;;
71360;SDS011;59166;48.908;1.870;2022-10-16T11:14:58;6.10;;;1.38;;
71360;SDS011;59166;48.908;1.870;2022-10-16T11:20:05;4.65;;;1.20;;
71360;SDS011;59166;48.908;1.870;2022-10-16T11:25:17;4.27;;;1.30;;
71360;SDS011;59166;48.908;1.870;2022-10-16T11:30:21;4.93;;;1.20;;
71360;SDS011;59166;48.908;1.870;2022-10-16T11:35:24;3.20;;;1.20;;
71360;SDS011;59166;48.908;1.870;2022-10-16T11:40:34;3.53;;;1.20;;
71360;SDS011;59166;48.908;1.870;2022-10-16T11:45:58;5.13;;;1.20;;
71360;SDS011;59166;48.908;1.870;2022-10-16T11:51:06;3.47;;;1.02;;
71360;SDS011;59166;48.908;1.870;2022-10-16T11:56:31;5.05;;;1.20;;
71360;SDS011;59166;48.908;1.870;2022-10-16T12:01:38;3.47;;;0.97;;
71360;SDS011;59166;48.908;1.870;2022-10-16T12:06:43;3.17;;;1.00;;
71360;SDS011;59166;48.908;1.870;2022-10-16T12:11:49;4.07;;;0.95;;
71360;SDS011;59166;48.908;1.870;2022-10-16T12:16:51;2.63;;;1.00;;
71360;SDS011;59166;48.908;1.870;2022-10-16T12:21:54;2.47;;;0.80;;
71360;SDS011;59166;48.908;1.870;2022-10-16T12:26:58;3.80;;;1.00;;
71360;SDS011;59166;48.908;1.870;2022-10-16T12:32:01;3.20;;;1.00;;
71360;SDS011;59166;48.908;1.870;2022-10-16T12:37:08;2.90;;;0.90;;
71360;SDS011;59166;48.908;1.870;2022-10-16T12:47:36;1.65;;;0.90;;
71360;SDS011;59166;48.908;1.870;2022-10-16T12:52:47;1.83;;;0.80;;
71360;SDS011;59166;48.908;1.870;2022-10-16T12:57:56;2.33;;;0.80;;
71360;SDS011;59166;48.908;1.870;2022-10-16T13:08:47;1.40;;;0.80;;
71360;SDS011;59166;48.908;1.870;2022-10-16T13:14:13;2.15;;;0.93;;
71360;SDS011;59166;48.908;1.870;2022-10-16T13:19:28;1.80;;;0.90;;
71360;SDS011;59166;48.908;1.870;2022-10-16T13:24:42;2.43;;;0.90;;
71360;SDS011;59166;48.908;1.870;2022-10-16T13:30:02;1.90;;;0.90;;
71360;SDS011;59166;48.908;1.870;2022-10-16T13:35:18;2.40;;;0.90;;
71360;SDS011;59166;48.908;1.870;2022-10-16T13:40:24;2.53;;;1.00;;
71360;SDS011;59166;48.908;1.870;2022-10-16T13:45:26;2.80;;;1.00;;
71360;SDS011;59166;48.908;1.870;2022-10-16T13:50:27;2.45;;;1.00;;
71360;SDS011;59166;48.908;1.870;2022-10-16T13:55:28;2.50;;;1.10;;
71360;SDS011;59166;48.908;1.870;2022-10-16T14:00:30;3.40;;;1.30;;
71360;SDS011;59166;48.908;1.870;2022-10-16T14:05:31;3.92;;;1.40;;
71360;SDS011;59166;48.908;1.870;2022-10-16T14:10:32;3.47;;;1.33;;
71360;SDS011;59166;48.908;1.870;2022-10-16T14:15:35;3.65;;;1.30;;
71360;SDS011;59166;48.908;1.870;2022-10-16T14:20:37;4.20;;;1.60;;
71360;SDS011;59166;48.908;1.870;2022-10-16T14:25:38;4.97;;;1.60;;
71360;SDS011;59166;48.908;1.870;2022-10-16T14:30:48;4.07;;;1.60;;
71360;SDS011;59166;48.908;1.870;2022-10-16T14:36:00;5.03;;;1.83;;
71360;SDS011;59166;48.908;1.870;2022-10-16T14:41:04;6.55;;;1.90;;
71360;SDS011;59166;48.908;1.870;2022-10-16T14:46:12;5.57;;;1.90;;
71360;SDS011;59166;48.908;1.870;2022-10-16T14:51:15;6.22;;;2.00;;
71360;SDS011;59166;48.908;1.870;2022-10-16T14:56:17;6.43;;;2.10;;
71360;SDS011;59166;48.908;1.870;2022-10-16T15:01:21;6.13;;;1.80;;
71360;SDS011;59166;48.908;1.870;2022-10-16T15:06:21;4.40;;;1.80;;
71360;SDS011;59166;48.908;1.870;2022-10-16T15:11:22;5.57;;;2.00;;
71360;SDS011;59166;48.908;1.870;2022-10-16T15:16:24;5.03;;;1.90;;
71360;SDS011;59166;48.908;1.870;2022-10-16T15:21:26;5.93;;;2.00;;
71360;SDS011;59166;48.908;1.870;2022-10-16T15:26:28;6.75;;;2.28;;
71360;SDS011;59166;48.908;1.870;2022-10-16T15:31:31;4.93;;;1.90;;
71360;SDS011;59166;48.908;1.870;2022-10-16T15:36:33;5.40;;;2.10;;
71360;SDS011;59166;48.908;1.870;2022-10-16T15:41:34;7.45;;;2.08;;
71360;SDS011;59166;48.908;1.870;2022-10-16T15:46:37;4.47;;;1.77;;
71360;SDS011;59166;48.908;1.870;2022-10-16T15:51:38;6.75;;;1.92;;
71360;SDS011;59166;48.908;1.870;2022-10-16T15:56:40;5.67;;;2.10;;
71360;SDS011;59166;48.908;1.870;2022-10-16T16:01:42;7.75;;;2.15;;
71360;SDS011;59166;48.908;1.870;2022-10-16T16:06:43;5.85;;;2.03;;
71360;SDS011;59166;48.908;1.870;2022-10-16T16:11:50;5.03;;;2.10;;
71360;SDS011;59166;48.908;1.870;2022-10-16T16:16:53;5.80;;;2.05;;
71360;SDS011;59166;48.908;1.870;2022-10-16T16:21:57;7.03;;;2.83;;
71360;SDS011;59166;48.908;1.870;2022-10-16T16:27:01;9.50;;;3.40;;
71360;SDS011;59166;48.908;1.870;2022-10-16T16:32:07;10.50;;;4.15;;
71360;SDS011;59166;48.908;1.870;2022-10-16T16:37:09;9.45;;;3.40;;
71360;SDS011;59166;48.908;1.870;2022-10-16T16:42:10;8.93;;;2.90;;
71360;SDS011;59166;48.908;1.870;2022-10-16T16:47:12;8.10;;;2.50;;
71360;SDS011;59166;48.908;1.870;2022-10-16T16:52:13;7.50;;;2.90;;
71360;SDS011;59166;48.908;1.870;2022-10-16T16:57:14;8.10;;;2.90;;
71360;SDS011;59166;48.908;1.870;2022-10-16T17:02:16;9.80;;;3.13;;
71360;SDS011;59166;48.908;1.870;2022-10-16T17:07:17;8.83;;;3.00;;
71360;SDS011;59166;48.908;1.870;2022-10-16T17:12:18;9.00;;;3.63;;
71360;SDS011;59166;48.908;1.870;2022-10-16T17:17:20;9.80;;;3.77;;
71360;SDS011;59166;48.908;1.870;2022-10-16T17:22:21;8.88;;;3.50;;
71360;SDS011;59166;48.908;1.870;2022-10-16T17:27:22;9.30;;;3.42;;
71360;SDS011;59166;48.908;1.870;2022-10-16T17:32:24;8.27;;;3.70;;
71360;SDS011;59166;48.908;1.870;2022-10-16T17:37:25;9.80;;;3.28;;
71360;SDS011;59166;48.908;1.870;2022-10-16T17:42:25;7.20;;;3.27;;
71360;SDS011;59166;48.908;1.870;2022-10-16T17:47:28;8.48;;;3.20;;
71360;SDS011;59166;48.908;1.870;2022-10-16T17:52:29;9.63;;;3.73;;
71360;SDS011;59166;48.908;1.870;2022-10-16T17:57:30;8.47;;;3.60;;
71360;SDS011;59166;48.908;1.870;2022-10-16T18:02:32;7.78;;;2.63;;
71360;SDS011;59166;48.908;1.870;2022-10-16T18:07:33;6.77;;;2.87;;
71360;SDS011;59166;48.908;1.870;2022-10-16T18:12:34;6.88;;;3.10;;
71360;SDS011;59166;48.908;1.870;2022-10-16T18:17:36;8.82;;;3.38;;
71360;SDS011;59166;48.908;1.870;2022-10-16T18:22:37;8.00;;;3.37;;
71360;SDS011;59166;48.908;1.870;2022-10-16T18:27:38;8.57;;;3.78;;
71360;SDS011;59166;48.908;1.870;2022-10-16T18:32:40;9.87;;;3.50;;
71360;SDS011;59166;48.908;1.870;2022-10-16T18:37:41;7.38;;;3.38;;
71360;SDS011;59166;48.908;1.870;2022-10-16T18:42:42;8.93;;;3.80;;
71360;SDS011;59166;48.908;1.870;2022-10-16T18:47:45;9.63;;;3.97;;
71360;SDS011;59166;48.908;1.870;2022-10-16T18:52:46;8.52;;;3.70;;
71360;SDS011;59166;48.908;1.870;2022-10-16T18:57:51;12.77;;;4.65;;
71360;SDS011;59166;48.908;1.870;2022-10-16T19:02:54;8.90;;;4.10;;
71360;SDS011;59166;48.908;1.870;2022-10-16T19:07:56;11.27;;;4.22;;
71360;SDS011;59166;48.908;1.870;2022-10-16T19:12:59;8.20;;;3.53;;
71360;SDS011;59166;48.908;1.870;2022-10-16T19:18:01;8.93;;;3.73;;
71360;SDS011;59166;48.908;1.870;2022-10-16T19:23:03;9.77;;;3.97;;
71360;SDS011;59166;48.908;1.870;2022-10-16T19:28:04;8.48;;;4.00;;
71360;SDS011;59166;48.908;1.870;2022-10-16T19:33:06;9.90;;;4.30;;
71360;SDS011;59166;48.908;1.870;2022-10-16T19:38:07;9.07;;;4.80;;
71360;SDS011;59166;48.908;1.870;2022-10-16T19:43:08;11.38;;;5.32;;
71360;SDS011;59166;48.908;1.870;2022-10-16T19:48:11;12.07;;;5.40;;
71360;SDS011;59166;48.908;1.870;2022-10-16T19:53:11;11.90;;;5.70;;
71360;SDS011;59166;48.908;1.870;2022-10-16T19:58:12;12.73;;;6.00;;
71360;SDS011;59166;48.908;1.870;2022-10-16T20:03:14;13.70;;;5.87;;
71360;SDS011;59166;48.908;1.870;2022-10-16T20:08:16;11.25;;;5.60;;
71360;SDS011;59166;48.908;1.870;2022-10-16T20:13:17;10.67;;;5.43;;
71360;SDS011;59166;48.908;1.870;2022-10-16T20:18:20;13.25;;;5.55;;
71360;SDS011;59166;48.908;1.870;2022-10-16T20:23:21;11.00;;;5.45;;
71360;SDS011;59166;48.908;1.870;2022-10-16T20:28:22;9.93;;;5.07;;
71360;SDS011;59166;48.908;1.870;2022-10-16T20:33:25;9.73;;;4.90;;
71360;SDS011;59166;48.908;1.870;2022-10-16T20:38:25;11.07;;;4.70;;
71360;SDS011;59166;48.908;1.870;2022-10-16T20:43:26;9.97;;;4.37;;
71360;SDS011;59166;48.908;1.870;2022-10-16T20:48:29;12.40;;;5.22;;
71360;SDS011;59166;48.908;1.870;2022-10-16T20:53:30;9.30;;;4.53;;
71360;SDS011;59166;48.908;1.870;2022-10-16T20:58:31;8.95;;;4.40;;
71360;SDS011;59166;48.908;1.870;2022-10-16T21:03:33;9.90;;;4.67;;
71360;SDS011;59166;48.908;1.870;2022-10-16T21:08:35;10.82;;;4.30;;
71360;SDS011;59166;48.908;1.870;2022-10-16T21:13:36;9.27;;;4.45;;
71360;SDS011;59166;48.908;1.870;2022-10-16T21:18:39;8.47;;;4.40;;
71360;SDS011;59166;48.908;1.870;2022-10-16T21:23:40;9.60;;;4.77;;
71360;SDS011;59166;48.908;1.870;2022-10-16T21:28:41;10.65;;;4.07;;
71360;SDS011;59166;48.908;1.870;2022-10-16T21:33:43;9.13;;;4.47;;
71360;SDS011;59166;48.908;1.870;2022-10-16T21:38:44;9.73;;;4.20;;
71360;SDS011;59166;48.908;1.870;2022-10-16T21:43:45;10.77;;;4.68;;
71360;SDS011;59166;48.908;1.870;2022-10-16T21:48:51;8.70;;;4.20;;
71360;SDS011;59166;48.908;1.870;2022-10-16T21:53:52;10.18;;;4.60;;
71360;SDS011;59166;48.908;1.870;2022-10-16T21:58:53;11.45;;;4.70;;
71360;SDS011;59166;48.908;1.870;2022-10-16T22:03:56;9.83;;;4.40;;
71360;SDS011;59166;48.908;1.870;2022-10-16T22:08:58;9.95;;;4.50;;
71360;SDS011;59166;48.908;1.870;2022-10-16T22:14:00;9.38;;;4.63;;
71360;SDS011;59166;48.908;1.870;2022-10-16T22:19:02;11.80;;;4.73;;
71360;SDS011;59166;48.908;1.870;2022-10-16T22:24:04;9.38;;;4.63;;
71360;SDS011;59166;48.908;1.870;2022-10-16T22:29:06;9.95;;;4.55;;
71360;SDS011;59166;48.908;1.870;2022-10-16T22:34:10;11.00;;;4.70;;
71360;SDS011;59166;48.908;1.870;2022-10-16T22:39:12;10.10;;;4.70;;
71360;SDS011;59166;48.908;1.870;2022-10-16T22:44:13;9.45;;;4.45;;
71360;SDS011;59166;48.908;1.870;2022-10-16T22:49:15;11.03;;;4.50;;
71360;SDS011;59166;48.908;1.870;2022-10-16T22:54:16;12.77;;;4.68;;
71360;SDS011;59166;48.908;1.870;2022-10-16T22:59:17;10.93;;;4.40;;
71360;SDS011;59166;48.908;1.870;2022-10-16T23:04:19;8.87;;;4.37;;
71360;SDS011;59166;48.908;1.870;2022-10-16T23:09:20;9.88;;;4.40;;
71360;SDS011;59166;48.908;1.870;2022-10-16T23:14:21;8.87;;;4.20;;
71360;SDS011;59166;48.908;1.870;2022-10-16T23:19:24;11.75;;;4.75;;
71360;SDS011;59166;48.908;1.870;2022-10-16T23:24:25;14.00;;;4.80;;
71360;SDS011;59166;48.908;1.870;2022-10-16T23:29:25;9.33;;;4.50;;
71360;SDS011;59166;48.908;1.870;2022-10-16T23:34:28;12.18;;;4.90;;
71360;SDS011;59166;48.908;1.870;2022-10-16T23:39:29;10.77;;;4.53;;
71360;SDS011;59166;48.908;1.870;2022-10-16T23:44:30;10.07;;;4.67;;
71360;SDS011;59166;48.908;1.870;2022-10-16T23:49:32;11.75;;;4.72;;
71360;SDS011;59166;48.908;1.870;2022-10-16T23:54:33;9.80;;;4.73;;
71360;SDS011;59166;48.908;1.870;2022-10-16T23:59:34;11.88;;;4.90;;
